sensor_id;sensor_type;location;lat;lon;timestamp;P1;durP1;ratioP1;P2;durP2;ratioP2
12774;SDS011;6451;42.630;23.382;2024-03-23T00:55:57;7.10;;;4.97;;
12774;SDS011;6451;42.630;23.382;2024-03-23T00:58:24;7.30;;;4.97;;
12774;SDS011;6451;42.630;23.382;2024-03-23T01:00:50;8.03;;;4.87;;
12774;SDS011;6451;42.630;23.382;2024-03-23T01:03:17;7.53;;;5.87;;
12774;SDS011;6451;42.630;23.382;2024-03-23T01:05:43;10.27;;;5.43;;
12774;SDS011;6451;42.630;23.382;2024-03-23T01:08:11;9.13;;;5.80;;
12774;SDS011;6451;42.630;23.382;2024-03-23T01:10:37;6.50;;;5.17;;
12774;SDS011;6451;42.630;23.382;2024-03-23T01:13:05;7.03;;;5.60;;
12774;SDS011;6451;42.630;23.382;2024-03-23T01:15:31;7.77;;;5.37;;
12774;SDS011;6451;42.630;23.382;2024-03-23T01:17:58;6.87;;;4.87;;
12774;SDS011;6451;42.630;23.382;2024-03-23T01:20:25;6.67;;;4.77;;
12774;SDS011;6451;42.630;23.382;2024-03-23T01:22:53;5.70;;;4.53;;
12774;SDS011;6451;42.630;23.382;2024-03-23T01:25:19;9.77;;;5.07;;
12774;SDS011;6451;42.630;23.382;2024-03-23T01:27:46;7.67;;;4.93;;
12774;SDS011;6451;42.630;23.382;2024-03-23T01:30:15;7.07;;;4.77;;
12774;SDS011;6451;42.630;23.382;2024-03-23T01:32:42;6.60;;;5.00;;
12774;SDS011;6451;42.630;23.382;2024-03-23T01:35:09;8.23;;;4.87;;
12774;SDS011;6451;42.630;23.382;2024-03-23T01:37:35;8.00;;;5.97;;
12774;SDS011;6451;42.630;23.382;2024-03-23T01:40:02;8.03;;;5.50;;
12774;SDS011;6451;42.630;23.382;2024-03-23T01:42:29;6.60;;;5.50;;
12774;SDS011;6451;42.630;23.382;2024-03-23T01:44:59;7.63;;;5.23;;
12774;SDS011;6451;42.630;23.382;2024-03-23T01:47:31;7.73;;;5.90;;
12774;SDS011;6451;42.630;23.382;2024-03-23T01:49:57;7.33;;;5.67;;
12774;SDS011;6451;42.630;23.382;2024-03-23T01:52:25;8.73;;;5.97;;
12774;SDS011;6451;42.630;23.382;2024-03-23T01:54:52;10.07;;;6.50;;
12774;SDS011;6451;42.630;23.382;2024-03-23T01:57:19;8.33;;;6.03;;
12774;SDS011;6451;42.630;23.382;2024-03-23T01:59:45;8.47;;;6.37;;
12774;SDS011;6451;42.630;23.382;2024-03-23T02:02:14;9.57;;;5.50;;
12774;SDS011;6451;42.630;23.382;2024-03-23T02:04:44;7.73;;;5.67;;
12774;SDS011;6451;42.630;23.382;2024-03-23T02:07:13;9.93;;;6.60;;
12774;SDS011;6451;42.630;23.382;2024-03-23T02:09:39;7.70;;;5.70;;
12774;SDS011;6451;42.630;23.382;2024-03-23T02:12:07;9.27;;;5.60;;
12774;SDS011;6451;42.630;23.382;2024-03-23T02:14:34;9.63;;;6.23;;
12774;SDS011;6451;42.630;23.382;2024-03-23T02:17:01;9.53;;;6.03;;
12774;SDS011;6451;42.630;23.382;2024-03-23T02:19:30;8.07;;;5.93;;
12774;SDS011;6451;42.630;23.382;2024-03-23T02:21:58;10.77;;;6.00;;
12774;SDS011;6451;42.630;23.382;2024-03-23T02:24:26;7.20;;;5.43;;
12774;SDS011;6451;42.630;23.382;2024-03-23T02:26:53;9.50;;;6.20;;
12774;SDS011;6451;42.630;23.382;2024-03-23T02:29:19;8.57;;;6.40;;
12774;SDS011;6451;42.630;23.382;2024-03-23T02:31:49;9.50;;;6.03;;
12774;SDS011;6451;42.630;23.382;2024-03-23T02:34:15;11.23;;;7.13;;
12774;SDS011;6451;42.630;23.382;2024-03-23T02:36:42;10.53;;;6.40;;
12774;SDS011;6451;42.630;23.382;2024-03-23T02:39:11;8.70;;;6.07;;
12774;SDS011;6451;42.630;23.382;2024-03-23T02:41:42;8.33;;;6.07;;
12774;SDS011;6451;42.630;23.382;2024-03-23T02:44:09;8.80;;;5.53;;
12774;SDS011;6451;42.630;23.382;2024-03-23T02:46:37;6.83;;;5.40;;
12774;SDS011;6451;42.630;23.382;2024-03-23T02:49:06;9.60;;;4.70;;
12774;SDS011;6451;42.630;23.382;2024-03-23T02:51:34;8.47;;;5.13;;
12774;SDS011;6451;42.630;23.382;2024-03-23T02:54:00;7.47;;;4.87;;
12774;SDS011;6451;42.630;23.382;2024-03-23T02:56:27;7.10;;;4.87;;
12774;SDS011;6451;42.630;23.382;2024-03-23T02:58:54;5.73;;;4.93;;
12774;SDS011;6451;42.630;23.382;2024-03-23T03:01:22;7.23;;;4.90;;
12774;SDS011;6451;42.630;23.382;2024-03-23T03:03:50;6.97;;;5.00;;
12774;SDS011;6451;42.630;23.382;2024-03-23T03:06:22;6.47;;;4.83;;
12774;SDS011;6451;42.630;23.382;2024-03-23T03:08:50;5.80;;;4.40;;
12774;SDS011;6451;42.630;23.382;2024-03-23T03:11:18;6.03;;;4.60;;
12774;SDS011;6451;42.630;23.382;2024-03-23T03:13:45;10.23;;;4.77;;
12774;SDS011;6451;42.630;23.382;2024-03-23T03:16:14;7.10;;;4.10;;
12774;SDS011;6451;42.630;23.382;2024-03-23T03:18:40;7.07;;;4.47;;
12774;SDS011;6451;42.630;23.382;2024-03-23T03:21:07;5.80;;;4.27;;
12774;SDS011;6451;42.630;23.382;2024-03-23T03:23:36;6.43;;;4.70;;
12774;SDS011;6451;42.630;23.382;2024-03-23T03:26:03;6.37;;;4.37;;
12774;SDS011;6451;42.630;23.382;2024-03-23T03:28:30;7.90;;;4.93;;
12774;SDS011;6451;42.630;23.382;2024-03-23T03:30:59;6.83;;;4.50;;
12774;SDS011;6451;42.630;23.382;2024-03-23T03:33:30;5.53;;;3.93;;
12774;SDS011;6451;42.630;23.382;2024-03-23T03:35:57;6.97;;;3.87;;
12774;SDS011;6451;42.630;23.382;2024-03-23T03:38:23;6.73;;;4.50;;
12774;SDS011;6451;42.630;23.382;2024-03-23T03:40:52;6.90;;;4.30;;
12774;SDS011;6451;42.630;23.382;2024-03-23T03:43:18;7.63;;;4.20;;
12774;SDS011;6451;42.630;23.382;2024-03-23T03:45:51;6.00;;;4.20;;
12774;SDS011;6451;42.630;23.382;2024-03-23T03:48:19;5.80;;;4.23;;
12774;SDS011;6451;42.630;23.382;2024-03-23T03:50:47;7.03;;;4.40;;
12774;SDS011;6451;42.630;23.382;2024-03-23T03:53:13;6.07;;;4.50;;
12774;SDS011;6451;42.630;23.382;2024-03-23T03:55:40;6.10;;;4.87;;
12774;SDS011;6451;42.630;23.382;2024-03-23T03:58:07;6.73;;;4.47;;
12774;SDS011;6451;42.630;23.382;2024-03-23T04:00:35;9.73;;;5.33;;
12774;SDS011;6451;42.630;23.382;2024-03-23T04:03:02;8.17;;;5.20;;
12774;SDS011;6451;42.630;23.382;2024-03-23T04:05:30;7.17;;;5.17;;
12774;SDS011;6451;42.630;23.382;2024-03-23T04:07:58;8.93;;;5.33;;
12774;SDS011;6451;42.630;23.382;2024-03-23T04:10:25;8.47;;;4.47;;
12774;SDS011;6451;42.630;23.382;2024-03-23T04:12:52;6.00;;;4.40;;
12774;SDS011;6451;42.630;23.382;2024-03-23T04:15:20;5.33;;;4.17;;
12774;SDS011;6451;42.630;23.382;2024-03-23T04:17:47;7.13;;;4.37;;
12774;SDS011;6451;42.630;23.382;2024-03-23T04:20:16;6.97;;;4.80;;
12774;SDS011;6451;42.630;23.382;2024-03-23T04:22:42;6.33;;;4.83;;
12774;SDS011;6451;42.630;23.382;2024-03-23T04:25:12;8.27;;;5.70;;
12774;SDS011;6451;42.630;23.382;2024-03-23T04:27:42;9.30;;;5.80;;
12774;SDS011;6451;42.630;23.382;2024-03-23T04:30:12;7.20;;;4.93;;
12774;SDS011;6451;42.630;23.382;2024-03-23T04:32:39;7.70;;;5.77;;
12774;SDS011;6451;42.630;23.382;2024-03-23T04:35:07;8.43;;;5.63;;
12774;SDS011;6451;42.630;23.382;2024-03-23T04:37:34;8.43;;;5.93;;
12774;SDS011;6451;42.630;23.382;2024-03-23T04:40:03;7.87;;;5.13;;
12774;SDS011;6451;42.630;23.382;2024-03-23T04:42:34;7.30;;;5.47;;
12774;SDS011;6451;42.630;23.382;2024-03-23T04:45:01;7.40;;;5.43;;
12774;SDS011;6451;42.630;23.382;2024-03-23T04:47:28;7.70;;;5.50;;
12774;SDS011;6451;42.630;23.382;2024-03-23T04:49:56;10.87;;;6.40;;
12774;SDS011;6451;42.630;23.382;2024-03-23T04:52:22;9.87;;;6.00;;
12774;SDS011;6451;42.630;23.382;2024-03-23T04:54:50;8.50;;;5.80;;
12774;SDS011;6451;42.630;23.382;2024-03-23T04:57:19;9.27;;;6.00;;
12774;SDS011;6451;42.630;23.382;2024-03-23T04:59:49;8.67;;;6.00;;
12774;SDS011;6451;42.630;23.382;2024-03-23T05:02:15;10.17;;;6.27;;
12774;SDS011;6451;42.630;23.382;2024-03-23T05:04:42;9.50;;;6.50;;
12774;SDS011;6451;42.630;23.382;2024-03-23T05:07:08;12.30;;;6.50;;
12774;SDS011;6451;42.630;23.382;2024-03-23T05:09:37;9.33;;;6.37;;
12774;SDS011;6451;42.630;23.382;2024-03-23T05:12:04;9.30;;;6.07;;
12774;SDS011;6451;42.630;23.382;2024-03-23T05:14:33;14.47;;;8.27;;
12774;SDS011;6451;42.630;23.382;2024-03-23T05:17:01;11.10;;;7.53;;
12774;SDS011;6451;42.630;23.382;2024-03-23T05:19:29;10.20;;;6.80;;
12774;SDS011;6451;42.630;23.382;2024-03-23T05:21:55;11.60;;;6.67;;
12774;SDS011;6451;42.630;23.382;2024-03-23T05:24:22;13.10;;;7.53;;
12774;SDS011;6451;42.630;23.382;2024-03-23T05:26:48;9.73;;;6.20;;
12774;SDS011;6451;42.630;23.382;2024-03-23T05:29:17;12.33;;;5.80;;
12774;SDS011;6451;42.630;23.382;2024-03-23T05:31:49;9.63;;;6.47;;
12774;SDS011;6451;42.630;23.382;2024-03-23T05:34:23;9.00;;;6.10;;
12774;SDS011;6451;42.630;23.382;2024-03-23T05:36:48;12.20;;;6.57;;
12774;SDS011;6451;42.630;23.382;2024-03-23T05:39:17;10.27;;;5.87;;
12774;SDS011;6451;42.630;23.382;2024-03-23T05:41:43;9.10;;;6.00;;
12774;SDS011;6451;42.630;23.382;2024-03-23T05:44:13;9.77;;;6.17;;
12774;SDS011;6451;42.630;23.382;2024-03-23T05:46:40;8.70;;;6.37;;
12774;SDS011;6451;42.630;23.382;2024-03-23T05:49:07;10.23;;;6.50;;
12774;SDS011;6451;42.630;23.382;2024-03-23T05:51:36;10.17;;;6.73;;
12774;SDS011;6451;42.630;23.382;2024-03-23T05:54:05;9.53;;;6.33;;
12774;SDS011;6451;42.630;23.382;2024-03-23T05:56:31;8.67;;;6.63;;
12774;SDS011;6451;42.630;23.382;2024-03-23T05:58:58;7.70;;;6.37;;
12774;SDS011;6451;42.630;23.382;2024-03-23T06:01:25;7.63;;;6.13;;
12774;SDS011;6451;42.630;23.382;2024-03-23T06:03:58;10.97;;;6.47;;
12774;SDS011;6451;42.630;23.382;2024-03-23T06:06:24;9.13;;;6.53;;
12774;SDS011;6451;42.630;23.382;2024-03-23T06:08:52;9.57;;;6.57;;
12774;SDS011;6451;42.630;23.382;2024-03-23T06:11:18;8.47;;;6.10;;
12774;SDS011;6451;42.630;23.382;2024-03-23T06:13:45;9.27;;;5.70;;
12774;SDS011;6451;42.630;23.382;2024-03-23T06:16:13;8.63;;;5.37;;
12774;SDS011;6451;42.630;23.382;2024-03-23T06:18:39;8.83;;;6.20;;
12774;SDS011;6451;42.630;23.382;2024-03-23T06:21:13;8.20;;;6.07;;
12774;SDS011;6451;42.630;23.382;2024-03-23T06:23:40;10.53;;;5.90;;
12774;SDS011;6451;42.630;23.382;2024-03-23T06:26:14;9.90;;;6.57;;
12774;SDS011;6451;42.630;23.382;2024-03-23T06:28:40;9.77;;;7.20;;
12774;SDS011;6451;42.630;23.382;2024-03-23T06:31:09;7.20;;;6.07;;
12774;SDS011;6451;42.630;23.382;2024-03-23T06:33:35;11.20;;;6.87;;
12774;SDS011;6451;42.630;23.382;2024-03-23T06:36:02;11.40;;;7.20;;
12774;SDS011;6451;42.630;23.382;2024-03-23T06:38:29;10.00;;;7.80;;
12774;SDS011;6451;42.630;23.382;2024-03-23T06:40:56;12.03;;;8.33;;
12774;SDS011;6451;42.630;23.382;2024-03-23T06:43:24;12.00;;;8.87;;
12774;SDS011;6451;42.630;23.382;2024-03-23T06:45:54;15.53;;;9.33;;
12774;SDS011;6451;42.630;23.382;2024-03-23T06:48:21;14.53;;;9.13;;
12774;SDS011;6451;42.630;23.382;2024-03-23T06:50:48;12.03;;;9.07;;
12774;SDS011;6451;42.630;23.382;2024-03-23T06:53:15;13.00;;;9.00;;
12774;SDS011;6451;42.630;23.382;2024-03-23T06:55:49;13.17;;;8.67;;
12774;SDS011;6451;42.630;23.382;2024-03-23T06:58:19;13.77;;;8.40;;
12774;SDS011;6451;42.630;23.382;2024-03-23T07:00:47;12.60;;;8.47;;
12774;SDS011;6451;42.630;23.382;2024-03-23T07:03:15;11.87;;;8.53;;
12774;SDS011;6451;42.630;23.382;2024-03-23T07:05:43;13.30;;;8.00;;
12774;SDS011;6451;42.630;23.382;2024-03-23T07:08:09;15.90;;;8.50;;
12774;SDS011;6451;42.630;23.382;2024-03-23T07:10:38;11.80;;;7.90;;
12774;SDS011;6451;42.630;23.382;2024-03-23T07:13:04;12.90;;;8.17;;
12774;SDS011;6451;42.630;23.382;2024-03-23T07:15:33;14.70;;;8.70;;
12774;SDS011;6451;42.630;23.382;2024-03-23T07:18:01;10.80;;;7.50;;
12774;SDS011;6451;42.630;23.382;2024-03-23T07:20:30;10.70;;;8.20;;
12774;SDS011;6451;42.630;23.382;2024-03-23T07:22:56;10.50;;;8.10;;
12774;SDS011;6451;42.630;23.382;2024-03-23T07:25:23;11.50;;;7.90;;
12774;SDS011;6451;42.630;23.382;2024-03-23T07:27:50;10.63;;;7.73;;
12774;SDS011;6451;42.630;23.382;2024-03-23T07:30:19;11.47;;;7.80;;
12774;SDS011;6451;42.630;23.382;2024-03-23T07:32:45;13.80;;;7.27;;
12774;SDS011;6451;42.630;23.382;2024-03-23T07:35:15;11.00;;;8.03;;
12774;SDS011;6451;42.630;23.382;2024-03-23T07:37:41;11.43;;;8.03;;
12774;SDS011;6451;42.630;23.382;2024-03-23T07:40:09;11.70;;;8.83;;
12774;SDS011;6451;42.630;23.382;2024-03-23T07:42:37;11.60;;;8.00;;
12774;SDS011;6451;42.630;23.382;2024-03-23T07:45:09;12.77;;;8.57;;
12774;SDS011;6451;42.630;23.382;2024-03-23T07:47:40;10.50;;;8.17;;
12774;SDS011;6451;42.630;23.382;2024-03-23T07:50:09;13.10;;;8.20;;
12774;SDS011;6451;42.630;23.382;2024-03-23T07:52:41;13.33;;;8.97;;
12774;SDS011;6451;42.630;23.382;2024-03-23T07:55:11;13.27;;;8.93;;
12774;SDS011;6451;42.630;23.382;2024-03-23T07:57:41;14.83;;;9.00;;
12774;SDS011;6451;42.630;23.382;2024-03-23T08:00:09;13.50;;;8.93;;
12774;SDS011;6451;42.630;23.382;2024-03-23T08:02:38;13.20;;;8.07;;
12774;SDS011;6451;42.630;23.382;2024-03-23T08:05:04;10.80;;;8.33;;
12774;SDS011;6451;42.630;23.382;2024-03-23T08:07:33;15.17;;;9.23;;
12774;SDS011;6451;42.630;23.382;2024-03-23T08:10:00;13.77;;;8.63;;
12774;SDS011;6451;42.630;23.382;2024-03-23T08:12:28;13.37;;;9.50;;
12774;SDS011;6451;42.630;23.382;2024-03-23T08:14:56;11.40;;;9.13;;
12774;SDS011;6451;42.630;23.382;2024-03-23T08:17:24;13.33;;;9.20;;
12774;SDS011;6451;42.630;23.382;2024-03-23T08:19:51;16.30;;;8.67;;
12774;SDS011;6451;42.630;23.382;2024-03-23T08:22:19;15.23;;;8.80;;
12774;SDS011;6451;42.630;23.382;2024-03-23T08:24:45;13.23;;;9.30;;
12774;SDS011;6451;42.630;23.382;2024-03-23T08:27:14;15.43;;;9.50;;
12774;SDS011;6451;42.630;23.382;2024-03-23T08:29:39;15.50;;;9.13;;
12774;SDS011;6451;42.630;23.382;2024-03-23T08:32:09;15.30;;;9.57;;
12774;SDS011;6451;42.630;23.382;2024-03-23T08:34:38;13.57;;;8.93;;
12774;SDS011;6451;42.630;23.382;2024-03-23T08:37:05;13.10;;;8.90;;
12774;SDS011;6451;42.630;23.382;2024-03-23T08:39:32;15.43;;;9.00;;
12774;SDS011;6451;42.630;23.382;2024-03-23T08:41:58;16.30;;;8.93;;
12774;SDS011;6451;42.630;23.382;2024-03-23T08:44:25;14.50;;;9.13;;
12774;SDS011;6451;42.630;23.382;2024-03-23T08:46:52;12.60;;;8.80;;
12774;SDS011;6451;42.630;23.382;2024-03-23T08:49:21;12.90;;;8.97;;
12774;SDS011;6451;42.630;23.382;2024-03-23T08:51:48;15.63;;;8.90;;
12774;SDS011;6451;42.630;23.382;2024-03-23T08:54:14;13.27;;;8.93;;
12774;SDS011;6451;42.630;23.382;2024-03-23T08:56:42;19.60;;;9.50;;
12774;SDS011;6451;42.630;23.382;2024-03-23T08:59:08;17.17;;;8.63;;
12774;SDS011;6451;42.630;23.382;2024-03-23T09:01:38;11.20;;;8.23;;
12774;SDS011;6451;42.630;23.382;2024-03-23T09:04:04;15.97;;;8.63;;
12774;SDS011;6451;42.630;23.382;2024-03-23T09:06:35;16.07;;;8.73;;
12774;SDS011;6451;42.630;23.382;2024-03-23T09:09:01;15.60;;;9.07;;
12774;SDS011;6451;42.630;23.382;2024-03-23T09:11:29;12.30;;;8.40;;
12774;SDS011;6451;42.630;23.382;2024-03-23T09:13:56;16.53;;;9.17;;
12774;SDS011;6451;42.630;23.382;2024-03-23T09:16:23;16.47;;;8.57;;
12774;SDS011;6451;42.630;23.382;2024-03-23T09:18:51;14.17;;;8.50;;
12774;SDS011;6451;42.630;23.382;2024-03-23T09:21:18;14.83;;;8.57;;
12774;SDS011;6451;42.630;23.382;2024-03-23T09:23:45;15.30;;;9.47;;
12774;SDS011;6451;42.630;23.382;2024-03-23T09:26:12;17.40;;;9.40;;
12774;SDS011;6451;42.630;23.382;2024-03-23T09:28:38;14.37;;;8.57;;
12774;SDS011;6451;42.630;23.382;2024-03-23T09:31:07;15.27;;;8.70;;
12774;SDS011;6451;42.630;23.382;2024-03-23T09:33:35;18.00;;;8.47;;
12774;SDS011;6451;42.630;23.382;2024-03-23T09:36:04;12.83;;;8.27;;
12774;SDS011;6451;42.630;23.382;2024-03-23T09:38:31;13.40;;;8.30;;
12774;SDS011;6451;42.630;23.382;2024-03-23T09:40:58;13.10;;;8.37;;
12774;SDS011;6451;42.630;23.382;2024-03-23T09:43:25;12.57;;;8.17;;
12774;SDS011;6451;42.630;23.382;2024-03-23T09:45:54;16.33;;;8.73;;
12774;SDS011;6451;42.630;23.382;2024-03-23T09:48:20;14.87;;;8.60;;
12774;SDS011;6451;42.630;23.382;2024-03-23T09:50:47;13.07;;;8.23;;
12774;SDS011;6451;42.630;23.382;2024-03-23T09:53:15;14.07;;;8.40;;
12774;SDS011;6451;42.630;23.382;2024-03-23T09:55:43;16.83;;;8.53;;
12774;SDS011;6451;42.630;23.382;2024-03-23T09:58:12;17.13;;;8.23;;
12774;SDS011;6451;42.630;23.382;2024-03-23T10:00:39;11.40;;;7.73;;
12774;SDS011;6451;42.630;23.382;2024-03-23T10:03:05;11.13;;;7.80;;
12774;SDS011;6451;42.630;23.382;2024-03-23T10:05:36;11.00;;;7.63;;
12774;SDS011;6451;42.630;23.382;2024-03-23T10:08:17;9.63;;;7.17;;
12774;SDS011;6451;42.630;23.382;2024-03-23T10:10:46;14.13;;;7.70;;
12774;SDS011;6451;42.630;23.382;2024-03-23T10:15:57;11.13;;;7.83;;
12774;SDS011;6451;42.630;23.382;2024-03-23T10:18:24;10.20;;;7.37;;
12774;SDS011;6451;42.630;23.382;2024-03-23T10:21:06;11.73;;;7.70;;
12774;SDS011;6451;42.630;23.382;2024-03-23T10:23:35;11.03;;;7.47;;
12774;SDS011;6451;42.630;23.382;2024-03-23T10:26:13;10.40;;;7.07;;
12774;SDS011;6451;42.630;23.382;2024-03-23T10:28:54;9.43;;;6.90;;
12774;SDS011;6451;42.630;23.382;2024-03-23T10:31:26;11.53;;;7.33;;
12774;SDS011;6451;42.630;23.382;2024-03-23T10:33:53;10.80;;;7.37;;
12774;SDS011;6451;42.630;23.382;2024-03-23T10:36:20;11.20;;;7.40;;
12774;SDS011;6451;42.630;23.382;2024-03-23T10:38:51;9.70;;;7.50;;
12774;SDS011;6451;42.630;23.382;2024-03-23T10:41:17;8.93;;;7.13;;
12774;SDS011;6451;42.630;23.382;2024-03-23T10:43:47;13.23;;;7.17;;
12774;SDS011;6451;42.630;23.382;2024-03-23T10:46:15;9.23;;;6.93;;
12774;SDS011;6451;42.630;23.382;2024-03-23T10:48:42;10.70;;;6.53;;
12774;SDS011;6451;42.630;23.382;2024-03-23T10:51:10;11.87;;;6.73;;
12774;SDS011;6451;42.630;23.382;2024-03-23T10:53:39;10.37;;;6.77;;
12774;SDS011;6451;42.630;23.382;2024-03-23T10:56:07;9.00;;;6.60;;
12774;SDS011;6451;42.630;23.382;2024-03-23T10:58:36;9.40;;;6.37;;
12774;SDS011;6451;42.630;23.382;2024-03-23T11:01:06;11.98;;;6.38;;
12774;SDS011;6451;42.630;23.382;2024-03-23T11:03:34;11.05;;;6.10;;
12774;SDS011;6451;42.630;23.382;2024-03-23T11:06:02;7.33;;;6.00;;
12774;SDS011;6451;42.630;23.382;2024-03-23T11:08:38;10.67;;;6.40;;
12774;SDS011;6451;42.630;23.382;2024-03-23T11:11:16;9.68;;;7.10;;
12774;SDS011;6451;42.630;23.382;2024-03-23T11:13:44;10.30;;;7.27;;
12774;SDS011;6451;42.630;23.382;2024-03-23T11:16:14;11.65;;;6.97;;
12774;SDS011;6451;42.630;23.382;2024-03-23T11:18:43;9.33;;;6.53;;
12774;SDS011;6451;42.630;23.382;2024-03-23T11:21:10;7.70;;;6.40;;
12774;SDS011;6451;42.630;23.382;2024-03-23T11:23:38;7.75;;;6.18;;
12774;SDS011;6451;42.630;23.382;2024-03-23T11:26:07;10.60;;;6.85;;
12774;SDS011;6451;42.630;23.382;2024-03-23T11:28:36;10.20;;;6.80;;
12774;SDS011;6451;42.630;23.382;2024-03-23T11:31:09;11.50;;;6.85;;
12774;SDS011;6451;42.630;23.382;2024-03-23T11:33:36;10.45;;;7.07;;
12774;SDS011;6451;42.630;23.382;2024-03-23T11:36:04;13.07;;;7.45;;
12774;SDS011;6451;42.630;23.382;2024-03-23T11:38:36;9.35;;;6.85;;
12774;SDS011;6451;42.630;23.382;2024-03-23T11:41:02;8.48;;;6.80;;
12774;SDS011;6451;42.630;23.382;2024-03-23T11:43:32;8.98;;;6.28;;
12774;SDS011;6451;42.630;23.382;2024-03-23T11:46:00;11.68;;;7.25;;
12774;SDS011;6451;42.630;23.382;2024-03-23T11:48:28;10.50;;;7.43;;
12774;SDS011;6451;42.630;23.382;2024-03-23T11:50:56;13.20;;;7.13;;
12774;SDS011;6451;42.630;23.382;2024-03-23T11:53:26;9.48;;;6.80;;
12774;SDS011;6451;42.630;23.382;2024-03-23T11:55:54;11.77;;;7.10;;
12774;SDS011;6451;42.630;23.382;2024-03-23T11:58:23;10.38;;;6.70;;
12774;SDS011;6451;42.630;23.382;2024-03-23T12:00:50;11.65;;;6.57;;
12774;SDS011;6451;42.630;23.382;2024-03-23T12:03:20;11.73;;;7.28;;
12774;SDS011;6451;42.630;23.382;2024-03-23T12:05:48;9.25;;;7.03;;
12774;SDS011;6451;42.630;23.382;2024-03-23T12:08:18;8.93;;;7.03;;
12774;SDS011;6451;42.630;23.382;2024-03-23T12:10:47;14.27;;;7.35;;
12774;SDS011;6451;42.630;23.382;2024-03-23T12:13:20;14.85;;;7.50;;
12774;SDS011;6451;42.630;23.382;2024-03-23T12:15:47;8.15;;;7.03;;
12774;SDS011;6451;42.630;23.382;2024-03-23T12:18:17;12.23;;;6.68;;
12774;SDS011;6451;42.630;23.382;2024-03-23T12:20:53;10.02;;;7.00;;
12774;SDS011;6451;42.630;23.382;2024-03-23T12:23:20;9.90;;;6.60;;
12774;SDS011;6451;42.630;23.382;2024-03-23T12:25:48;14.27;;;7.47;;
12774;SDS011;6451;42.630;23.382;2024-03-23T12:28:23;10.18;;;7.03;;
12774;SDS011;6451;42.630;23.382;2024-03-23T12:30:49;11.82;;;7.10;;
12774;SDS011;6451;42.630;23.382;2024-03-23T12:33:17;14.52;;;7.70;;
12774;SDS011;6451;42.630;23.382;2024-03-23T12:35:44;11.13;;;6.65;;
12774;SDS011;6451;42.630;23.382;2024-03-23T12:38:13;8.50;;;7.00;;
12774;SDS011;6451;42.630;23.382;2024-03-23T12:40:39;10.60;;;7.10;;
12774;SDS011;6451;42.630;23.382;2024-03-23T12:43:07;10.98;;;7.30;;
12774;SDS011;6451;42.630;23.382;2024-03-23T12:45:34;14.13;;;7.25;;
12774;SDS011;6451;42.630;23.382;2024-03-23T12:48:03;11.27;;;7.35;;
12774;SDS011;6451;42.630;23.382;2024-03-23T12:50:29;10.85;;;7.40;;
12774;SDS011;6451;42.630;23.382;2024-03-23T12:52:57;9.50;;;6.88;;
12774;SDS011;6451;42.630;23.382;2024-03-23T12:55:25;7.82;;;6.70;;
12774;SDS011;6451;42.630;23.382;2024-03-23T12:57:53;10.30;;;6.47;;
12774;SDS011;6451;42.630;23.382;2024-03-23T13:00:21;14.80;;;6.75;;
12774;SDS011;6451;42.630;23.382;2024-03-23T13:02:49;9.05;;;5.95;;
12774;SDS011;6451;42.630;23.382;2024-03-23T13:05:15;7.68;;;5.35;;
12774;SDS011;6451;42.630;23.382;2024-03-23T13:07:46;9.70;;;5.63;;
12774;SDS011;6451;42.630;23.382;2024-03-23T13:10:12;5.88;;;4.78;;
12774;SDS011;6451;42.630;23.382;2024-03-23T13:12:42;8.82;;;4.90;;
12774;SDS011;6451;42.630;23.382;2024-03-23T13:15:09;5.82;;;4.97;;
12774;SDS011;6451;42.630;23.382;2024-03-23T13:17:35;6.75;;;5.10;;
12774;SDS011;6451;42.630;23.382;2024-03-23T13:20:01;5.93;;;5.00;;
12774;SDS011;6451;42.630;23.382;2024-03-23T13:22:29;7.05;;;5.55;;
12774;SDS011;6451;42.630;23.382;2024-03-23T13:24:56;8.85;;;4.97;;
12774;SDS011;6451;42.630;23.382;2024-03-23T13:27:23;6.00;;;4.55;;
12774;SDS011;6451;42.630;23.382;2024-03-23T13:29:50;8.10;;;4.47;;
12774;SDS011;6451;42.630;23.382;2024-03-23T13:32:17;7.18;;;4.80;;
12774;SDS011;6451;42.630;23.382;2024-03-23T13:34:43;5.47;;;4.63;;
12774;SDS011;6451;42.630;23.382;2024-03-23T13:37:11;5.00;;;3.80;;
12774;SDS011;6451;42.630;23.382;2024-03-23T13:39:39;5.75;;;3.13;;
12774;SDS011;6451;42.630;23.382;2024-03-23T13:42:09;4.35;;;2.85;;
12774;SDS011;6451;42.630;23.382;2024-03-23T13:44:37;4.38;;;2.75;;
12774;SDS011;6451;42.630;23.382;2024-03-23T13:47:06;3.13;;;2.45;;
12774;SDS011;6451;42.630;23.382;2024-03-23T13:49:32;2.45;;;2.17;;
12774;SDS011;6451;42.630;23.382;2024-03-23T13:51:59;5.13;;;2.40;;
12774;SDS011;6451;42.630;23.382;2024-03-23T13:54:25;5.70;;;2.30;;
12774;SDS011;6451;42.630;23.382;2024-03-23T13:56:54;4.35;;;2.00;;
12774;SDS011;6451;42.630;23.382;2024-03-23T13:59:21;2.80;;;2.20;;
12774;SDS011;6451;42.630;23.382;2024-03-23T14:01:49;3.72;;;2.30;;
12774;SDS011;6451;42.630;23.382;2024-03-23T14:04:18;3.70;;;2.08;;
12774;SDS011;6451;42.630;23.382;2024-03-23T14:06:45;2.83;;;2.40;;
12774;SDS011;6451;42.630;23.382;2024-03-23T14:09:11;2.78;;;2.03;;
12774;SDS011;6451;42.630;23.382;2024-03-23T14:11:38;2.80;;;2.10;;
12774;SDS011;6451;42.630;23.382;2024-03-23T14:14:06;2.95;;;2.35;;
12774;SDS011;6451;42.630;23.382;2024-03-23T14:16:34;2.72;;;2.08;;
12774;SDS011;6451;42.630;23.382;2024-03-23T14:19:00;2.10;;;1.80;;
12774;SDS011;6451;42.630;23.382;2024-03-23T14:21:32;2.33;;;1.90;;
12774;SDS011;6451;42.630;23.382;2024-03-23T14:24:02;2.53;;;1.98;;
12774;SDS011;6451;42.630;23.382;2024-03-23T14:26:29;3.78;;;2.00;;
12774;SDS011;6451;42.630;23.382;2024-03-23T14:28:56;4.95;;;1.75;;
12774;SDS011;6451;42.630;23.382;2024-03-23T14:31:22;3.70;;;1.88;;
12774;SDS011;6451;42.630;23.382;2024-03-23T14:33:50;2.63;;;1.77;;
12774;SDS011;6451;42.630;23.382;2024-03-23T14:36:21;10.23;;;6.10;;
12774;SDS011;6451;42.630;23.382;2024-03-23T14:38:52;2.72;;;1.80;;
12774;SDS011;6451;42.630;23.382;2024-03-23T14:41:18;2.90;;;1.67;;
12774;SDS011;6451;42.630;23.382;2024-03-23T14:43:51;2.05;;;1.85;;
12774;SDS011;6451;42.630;23.382;2024-03-23T14:46:19;4.22;;;2.47;;
12774;SDS011;6451;42.630;23.382;2024-03-23T14:48:48;3.00;;;1.80;;
12774;SDS011;6451;42.630;23.382;2024-03-23T14:51:14;4.75;;;1.98;;
12774;SDS011;6451;42.630;23.382;2024-03-23T14:53:45;1.83;;;1.60;;
12774;SDS011;6451;42.630;23.382;2024-03-23T14:56:13;1.80;;;1.60;;
12774;SDS011;6451;42.630;23.382;2024-03-23T14:58:41;2.33;;;1.67;;
12774;SDS011;6451;42.630;23.382;2024-03-23T15:01:07;1.90;;;1.60;;
12774;SDS011;6451;42.630;23.382;2024-03-23T15:03:35;3.45;;;2.13;;
12774;SDS011;6451;42.630;23.382;2024-03-23T15:06:02;2.40;;;1.67;;
12774;SDS011;6451;42.630;23.382;2024-03-23T15:08:30;2.35;;;1.60;;
12774;SDS011;6451;42.630;23.382;2024-03-23T15:10:58;10.40;;;7.53;;
12774;SDS011;6451;42.630;23.382;2024-03-23T15:13:32;14.75;;;10.52;;
12774;SDS011;6451;42.630;23.382;2024-03-23T15:15:59;9.80;;;8.77;;
12774;SDS011;6451;42.630;23.382;2024-03-23T15:18:28;5.88;;;4.60;;
12774;SDS011;6451;42.630;23.382;2024-03-23T15:20:57;7.55;;;3.63;;
12774;SDS011;6451;42.630;23.382;2024-03-23T15:23:27;42.63;;;32.33;;
12774;SDS011;6451;42.630;23.382;2024-03-23T15:25:53;30.33;;;21.75;;
12774;SDS011;6451;42.630;23.382;2024-03-23T15:28:22;18.52;;;14.27;;
12774;SDS011;6451;42.630;23.382;2024-03-23T15:30:50;5.65;;;4.53;;
12774;SDS011;6451;42.630;23.382;2024-03-23T15:33:17;5.60;;;3.50;;
12774;SDS011;6451;42.630;23.382;2024-03-23T15:35:43;4.25;;;3.72;;
12774;SDS011;6451;42.630;23.382;2024-03-23T15:38:10;4.90;;;4.40;;
12774;SDS011;6451;42.630;23.382;2024-03-23T15:40:37;4.72;;;3.42;;
12774;SDS011;6451;42.630;23.382;2024-03-23T15:43:04;5.80;;;3.00;;